createdAt,value
2022-09-10T00:02:15.317Z,1.73
2022-09-10T00:04:41.670Z,1.40
2022-09-10T00:07:07.972Z,1.10
2022-09-10T00:09:34.554Z,1.40
2022-09-10T00:12:00.858Z,1.17
2022-09-10T00:14:27.279Z,1.10
2022-09-10T00:16:54.733Z,1.17
2022-09-10T00:19:22.026Z,1.10
2022-09-10T00:21:50.485Z,1.13
2022-09-10T00:24:17.113Z,1.40
2022-09-10T00:26:43.458Z,1.37
2022-09-10T00:29:11.530Z,1.00
2022-09-10T00:31:38.455Z,1.13
2022-09-10T00:34:05.739Z,1.03
2022-09-10T00:36:35.871Z,1.20
2022-09-10T00:39:05.461Z,0.90
2022-09-10T00:41:33.710Z,1.30
2022-09-10T00:44:07.935Z,1.03
2022-09-10T00:46:47.826Z,1.30
2022-09-10T00:49:25.847Z,1.47
2022-09-10T00:51:53.623Z,1.33
2022-09-10T00:54:22.191Z,1.27
2022-09-10T00:56:49.607Z,1.37
2022-09-10T00:59:18.753Z,1.50
2022-09-10T01:01:45.647Z,1.30
2022-09-10T01:04:11.939Z,1.50
2022-09-10T01:06:40.262Z,1.40
2022-09-10T01:09:06.815Z,1.50
2022-09-10T01:11:52.529Z,1.47
2022-09-10T01:17:21.157Z,1.47
2022-09-10T01:20:25.303Z,1.30
2022-09-10T01:23:25.603Z,1.13
2022-09-10T01:26:07.764Z,1.23
2022-09-10T01:28:40.503Z,1.13
2022-09-10T01:31:22.646Z,1.40
2022-09-10T01:34:01.970Z,1.30
2022-09-10T01:36:31.224Z,1.30
2022-09-10T01:38:57.649Z,1.20
2022-09-10T01:41:25.817Z,1.30
2022-09-10T01:43:52.112Z,1.20
2022-09-10T01:46:21.666Z,1.17
2022-09-10T01:49:15.149Z,1.20
2022-09-10T01:52:12.406Z,0.90
2022-09-10T01:54:58.894Z,1.23
2022-09-10T01:57:38.382Z,1.10
2022-09-10T02:00:09.681Z,0.90
2022-09-10T02:03:05.715Z,0.83
2022-09-10T02:05:35.149Z,1.23
2022-09-10T02:08:03.646Z,1.10
2022-09-10T02:10:29.999Z,1.07
2022-09-10T02:12:56.503Z,1.00
2022-09-10T02:15:24.502Z,1.00
2022-09-10T02:17:53.507Z,1.27
2022-09-10T02:20:21.958Z,1.00
2022-09-10T02:22:51.930Z,1.53
2022-09-10T02:25:18.303Z,1.70
2022-09-10T02:27:44.703Z,1.80
2022-09-10T02:30:11.680Z,1.17
2022-09-10T02:32:37.983Z,1.53
2022-09-10T02:35:04.798Z,1.70
2022-09-10T02:37:31.139Z,1.60
2022-09-10T02:39:57.585Z,1.50
2022-09-10T02:42:23.983Z,1.60
2022-09-10T02:44:50.273Z,1.50
2022-09-10T02:47:16.558Z,1.90
2022-09-10T02:49:42.874Z,2.00
2022-09-10T02:52:09.356Z,2.30
2022-09-10T02:54:35.914Z,2.20
2022-09-10T02:57:02.251Z,1.97
2022-09-10T02:59:29.033Z,1.60
2022-09-10T03:01:56.237Z,1.60
2022-09-10T03:04:22.598Z,1.87
2022-09-10T03:06:49.421Z,1.70
2022-09-10T03:09:17.024Z,1.50
2022-09-10T03:11:43.377Z,1.60
2022-09-10T03:14:10.374Z,1.20
2022-09-10T03:16:36.770Z,1.50
2022-09-10T03:19:03.330Z,1.70
2022-09-10T03:21:29.663Z,1.50
2022-09-10T03:23:57.101Z,1.63
2022-09-10T03:26:25.218Z,1.50
2022-09-10T03:28:52.048Z,1.40
2022-09-10T03:31:18.389Z,1.80
2022-09-10T03:33:46.092Z,1.50
2022-09-10T03:36:15.191Z,2.10
2022-09-10T03:38:41.612Z,1.40
2022-09-10T03:41:08.183Z,1.90
2022-09-10T03:43:34.491Z,1.60
2022-09-10T03:46:01.216Z,1.70
2022-09-10T03:48:27.534Z,1.60
2022-09-10T03:50:54.646Z,1.70
2022-09-10T03:53:21.133Z,1.90
2022-09-10T03:55:49.008Z,1.97
2022-09-10T03:58:16.355Z,1.70
2022-09-10T04:00:42.898Z,1.73
2022-09-10T04:03:10.846Z,2.07
2022-09-10T04:05:40.336Z,1.93
2022-09-10T04:08:07.438Z,2.20
2022-09-10T04:10:33.904Z,2.00
2022-09-10T04:13:00.189Z,2.17
2022-09-10T04:15:26.538Z,2.00
2022-09-10T04:17:52.859Z,1.87
2022-09-10T04:20:20.431Z,1.90
2022-09-10T04:22:47.679Z,2.13
2022-09-10T04:25:15.559Z,2.20
2022-09-10T04:27:42.590Z,2.10
2022-09-10T04:30:09.847Z,2.10
2022-09-10T04:32:36.765Z,2.17
2022-09-10T04:35:03.951Z,2.27
2022-09-10T04:37:31.065Z,2.00
2022-09-10T04:39:57.406Z,2.27
2022-09-10T04:42:24.046Z,2.40
2022-09-10T04:44:50.459Z,2.10
2022-09-10T04:47:17.530Z,2.20
2022-09-10T04:49:43.851Z,2.57
2022-09-10T04:52:11.731Z,2.50
2022-09-10T04:54:38.042Z,2.20
2022-09-10T04:57:07.349Z,2.20
2022-09-10T04:59:34.845Z,2.17
2022-09-10T05:02:02.025Z,2.83
2022-09-10T05:04:28.329Z,2.33
2022-09-10T05:06:54.943Z,2.37
2022-09-10T05:09:21.293Z,2.20
2022-09-10T05:11:47.589Z,2.30
2022-09-10T05:14:14.239Z,2.37
2022-09-10T05:16:40.676Z,2.57
2022-09-10T05:19:07.069Z,2.60
2022-09-10T05:21:33.461Z,2.20
2022-09-10T05:23:59.866Z,2.47
2022-09-10T05:26:27.549Z,2.40
2022-09-10T05:28:54.799Z,2.13
2022-09-10T05:31:21.563Z,2.30
2022-09-10T05:33:47.911Z,2.40
2022-09-10T05:36:14.842Z,2.33
2022-09-10T05:38:41.500Z,2.30
2022-09-10T05:41:11.304Z,3.00
2022-09-10T05:43:37.651Z,2.33
2022-09-10T05:46:04.644Z,2.63
2022-09-10T05:48:31.107Z,2.57
2022-09-10T05:50:57.523Z,2.40
2022-09-10T05:53:24.126Z,2.80
2022-09-10T05:55:50.583Z,2.60
2022-09-10T05:58:16.878Z,2.50
2022-09-10T06:00:43.228Z,2.80
2022-09-10T06:03:10.276Z,2.37
2022-09-10T06:05:36.693Z,2.50
2022-09-10T06:08:07.904Z,2.60
2022-09-10T06:10:35.095Z,2.23
2022-09-10T06:13:01.390Z,2.30
2022-09-10T06:15:27.739Z,2.10
2022-09-10T06:17:56.487Z,1.97
2022-09-10T06:20:23.371Z,2.43
2022-09-10T06:22:49.714Z,2.00
2022-09-10T06:25:16.075Z,2.10
2022-09-10T06:27:42.439Z,2.10
2022-09-10T06:30:08.966Z,1.97
2022-09-10T06:32:35.251Z,2.03
2022-09-10T06:35:01.534Z,2.20
2022-09-10T06:37:27.847Z,2.17
2022-09-10T06:39:54.277Z,1.90
2022-09-10T06:42:20.580Z,2.20
2022-09-10T06:44:46.885Z,2.10
2022-09-10T06:48:01.077Z,2.80
2022-09-10T06:49:59.810Z,2.27
2022-09-10T06:52:28.747Z,2.43
2022-09-10T06:54:55.190Z,2.30
2022-09-10T06:57:25.363Z,1.87
2022-09-10T06:59:51.667Z,2.43
2022-09-10T07:02:18.027Z,2.43
2022-09-10T07:04:44.322Z,2.40
2022-09-10T07:07:11.059Z,1.90
2022-09-10T07:09:37.404Z,2.10
2022-09-10T07:12:04.758Z,2.10
2022-09-10T07:14:32.206Z,2.30
2022-09-10T07:16:58.653Z,2.20
2022-09-10T07:19:25.031Z,1.77
2022-09-10T07:21:51.632Z,1.73
2022-09-10T07:24:19.880Z,1.87
2022-09-10T07:26:46.931Z,1.88
2022-09-10T07:29:13.222Z,2.13
2022-09-10T07:31:41.535Z,2.20
2022-09-10T07:34:08.501Z,1.90
2022-09-10T07:36:35.140Z,1.93
2022-09-10T07:39:01.720Z,1.70
2022-09-10T07:41:29.770Z,1.85
2022-09-10T07:43:56.182Z,1.80
2022-09-10T07:46:24.746Z,1.30
2022-09-10T07:48:59.211Z,1.35
2022-09-10T07:51:27.354Z,1.67
2022-09-10T07:53:55.082Z,1.52
2022-09-10T07:56:23.130Z,1.65
2022-09-10T07:58:50.150Z,1.40
2022-09-10T08:01:19.418Z,1.38
2022-09-10T08:03:46.334Z,1.40
2022-09-10T08:06:12.810Z,1.25
2022-09-10T08:08:39.828Z,1.65
2022-09-10T08:11:16.138Z,1.30
2022-09-10T08:13:47.566Z,1.50
2022-09-10T08:16:16.888Z,1.45
2022-09-10T08:18:43.670Z,1.38
2022-09-10T08:21:10.681Z,1.20
2022-09-10T08:23:37.602Z,1.30
2022-09-10T08:26:05.196Z,1.30
2022-09-10T08:28:31.474Z,1.20
2022-09-10T08:31:07.440Z,1.00
2022-09-10T08:33:39.178Z,1.10
2022-09-10T08:36:07.901Z,1.40
2022-09-10T08:38:39.553Z,1.38
2022-09-10T08:41:14.899Z,1.38
2022-09-10T08:44:02.782Z,1.35
2022-09-10T08:46:33.821Z,1.10
2022-09-10T08:49:38.411Z,1.20
2022-09-10T08:52:14.239Z,1.45
2022-09-10T08:54:47.098Z,1.10
2022-09-10T08:57:24.217Z,1.20
2022-09-10T08:59:52.410Z,1.30
2022-09-10T09:02:38.143Z,1.10
2022-09-10T09:05:15.218Z,1.10
2022-09-10T09:07:42.547Z,1.42
2022-09-10T09:10:24.070Z,1.23
2022-09-10T09:13:08.459Z,1.50
2022-09-10T09:15:43.109Z,1.50
2022-09-10T09:18:27.957Z,1.30
2022-09-10T09:21:00.889Z,1.60
2022-09-10T09:23:35.947Z,1.70
2022-09-10T09:26:12.302Z,2.00
2022-09-10T09:29:07.795Z,1.75
2022-09-10T09:31:37.990Z,1.50
2022-09-10T09:34:10.943Z,1.58
2022-09-10T09:36:45.598Z,1.30
2022-09-10T09:39:25.572Z,1.40
2022-09-10T09:42:02.499Z,1.75
2022-09-10T09:44:34.445Z,1.55
2022-09-10T09:47:00.991Z,1.23
2022-09-10T09:49:27.723Z,1.40
2022-09-10T09:51:54.030Z,1.48
2022-09-10T09:55:12.661Z,1.27
2022-09-10T09:57:19.298Z,1.27
2022-09-10T09:59:46.654Z,1.30
2022-09-10T10:02:21.754Z,1.30
2022-09-10T10:04:56.177Z,1.35
2022-09-10T10:07:27.833Z,1.30
2022-09-10T10:09:54.290Z,1.33
2022-09-10T10:12:21.133Z,1.40
2022-09-10T10:14:47.851Z,2.30
2022-09-10T10:17:35.539Z,1.35
2022-09-10T10:20:09.399Z,1.25
2022-09-10T10:22:37.447Z,1.42
2022-09-10T10:25:26.358Z,1.30
2022-09-10T10:27:54.248Z,1.00
2022-09-10T10:30:24.860Z,1.00
2022-09-10T10:32:57.887Z,0.90
2022-09-10T10:35:42.499Z,1.20
2022-09-10T10:39:04.526Z,1.15
2022-09-10T10:42:04.424Z,0.80
2022-09-10T10:44:55.138Z,1.00
2022-09-10T10:47:27.803Z,0.80
2022-09-10T10:50:15.298Z,0.90
2022-09-10T10:53:06.712Z,0.82
2022-09-10T10:55:40.607Z,0.68
2022-09-10T10:58:22.716Z,0.70
2022-09-10T11:00:57.226Z,0.60
2022-09-10T11:03:44.856Z,0.70
2022-09-10T11:06:16.646Z,0.50
2022-09-10T11:08:50.125Z,0.63
2022-09-10T11:11:26.287Z,0.40
2022-09-10T11:14:00.439Z,0.60
2022-09-10T11:16:38.485Z,0.50
2022-09-10T11:19:25.358Z,0.50
2022-09-10T11:21:55.652Z,0.45
2022-09-10T11:24:26.893Z,0.57
2022-09-10T11:27:22.634Z,0.60
2022-09-10T11:29:57.462Z,0.77
2022-09-10T11:32:39.739Z,0.55
2022-09-10T11:35:55.275Z,0.70
2022-09-10T11:38:48.340Z,0.60
2022-09-10T11:41:22.038Z,0.70
2022-09-10T11:44:02.048Z,0.70
2022-09-10T11:46:36.924Z,0.70
2022-09-10T11:49:34.891Z,0.80
2022-09-10T11:52:01.681Z,0.60
2022-09-10T11:54:34.380Z,0.57
2022-09-10T11:57:16.063Z,0.60
2022-09-10T12:00:06.952Z,0.70
2022-09-10T12:02:59.150Z,0.55
2022-09-10T12:05:31.460Z,0.70
2022-09-10T12:08:19.627Z,0.80
2022-09-10T12:11:09.143Z,0.60
2022-09-10T12:13:41.423Z,0.60
2022-09-10T12:16:22.494Z,0.60
2022-09-10T12:18:51.523Z,0.60
2022-09-10T12:21:40.135Z,0.80
2022-09-10T12:24:24.095Z,0.70
2022-09-10T12:26:50.462Z,0.50
2022-09-10T12:29:29.990Z,0.80
2022-09-10T12:32:08.437Z,0.60
2022-09-10T12:34:36.036Z,0.90
2022-09-10T12:37:02.223Z,0.60
2022-09-10T12:39:29.049Z,0.70
2022-09-10T12:42:07.027Z,0.65
2022-09-10T12:44:36.290Z,0.60
2022-09-10T12:47:14.760Z,0.70
2022-09-10T12:49:57.323Z,0.70
2022-09-10T12:52:51.784Z,0.57
2022-09-10T12:55:40.851Z,0.70
2022-09-10T12:58:25.778Z,0.70
2022-09-10T13:00:54.861Z,0.70
2022-09-10T13:03:22.876Z,0.50
2022-09-10T13:05:54.838Z,0.68
2022-09-10T13:08:27.909Z,0.52
2022-09-10T13:11:01.196Z,0.55
2022-09-10T13:13:48.713Z,0.50
2022-09-10T13:16:35.218Z,0.70
2022-09-10T13:19:13.778Z,0.60
2022-09-10T13:21:40.002Z,0.60
2022-09-10T13:24:35.899Z,0.52
2022-09-10T13:27:19.058Z,0.60
2022-09-10T13:29:47.653Z,0.60
2022-09-10T13:32:23.540Z,0.50
2022-09-10T13:35:34.325Z,0.60
2022-09-10T13:38:04.313Z,0.80
2022-09-10T13:40:56.650Z,0.70
2022-09-10T13:43:46.045Z,0.60
2022-09-10T13:46:21.000Z,0.70
2022-09-10T13:48:54.755Z,0.65
2022-09-10T13:51:30.997Z,0.75
2022-09-10T13:54:07.197Z,0.73
2022-09-10T13:56:34.861Z,0.80
2022-09-10T13:59:03.038Z,0.88
2022-09-10T14:01:49.630Z,0.90
2022-09-10T14:04:22.299Z,0.70
2022-09-10T14:06:48.983Z,0.68
2022-09-10T14:09:15.295Z,0.80
2022-09-10T14:11:42.326Z,0.65
2022-09-10T14:14:14.753Z,0.70
2022-09-10T14:16:40.987Z,0.90
2022-09-10T14:19:15.126Z,0.95
2022-09-10T14:21:42.086Z,0.80
2022-09-10T14:24:27.621Z,0.80
2022-09-10T14:27:17.035Z,1.10
2022-09-10T14:29:43.487Z,1.00
2022-09-10T14:32:37.233Z,0.82
2022-09-10T14:35:38.029Z,1.20
2022-09-10T14:38:20.087Z,1.00
2022-09-10T14:40:47.567Z,0.98
2022-09-10T14:43:23.226Z,0.90
2022-09-10T14:45:49.700Z,1.00
2022-09-10T14:48:36.934Z,0.80
2022-09-10T14:51:24.123Z,0.90
2022-09-10T14:53:52.029Z,1.00
2022-09-10T14:56:37.872Z,0.98
2022-09-10T14:59:13.079Z,1.05
2022-09-10T15:01:44.563Z,0.90
2022-09-10T15:04:26.029Z,0.80
2022-09-10T15:06:53.108Z,0.90
2022-09-10T15:09:20.611Z,0.90
2022-09-10T15:11:54.324Z,0.88
2022-09-10T15:14:21.386Z,0.88
2022-09-10T15:16:50.350Z,0.90
2022-09-10T15:19:16.639Z,1.15
2022-09-10T15:21:42.942Z,0.82
2022-09-10T15:24:13.747Z,0.80
2022-09-10T15:26:40.063Z,0.90
2022-09-10T15:29:06.369Z,1.30
2022-09-10T15:31:33.006Z,1.10
2022-09-10T15:33:59.624Z,2.60
2022-09-10T15:36:28.207Z,1.10
2022-09-10T15:38:55.161Z,2.40
2022-09-10T15:41:21.773Z,1.83
2022-09-10T15:43:48.290Z,1.65
2022-09-10T15:46:16.354Z,1.48
2022-09-10T15:48:43.181Z,1.90
2022-09-10T15:51:15.726Z,2.95
2022-09-10T15:53:42.705Z,1.45
2022-09-10T15:56:10.743Z,1.50
2022-09-10T15:58:37.604Z,1.40
2022-09-10T16:01:08.204Z,1.70
2022-09-10T16:03:34.669Z,2.10
2022-09-10T16:06:02.902Z,2.00
2022-09-10T16:08:29.326Z,1.95
2022-09-10T16:10:55.727Z,2.20
2022-09-10T16:13:22.197Z,2.10
2022-09-10T16:16:02.620Z,2.17
2022-09-10T16:18:31.423Z,1.73
2022-09-10T16:21:22.259Z,1.95
2022-09-10T16:23:50.590Z,2.00
2022-09-10T16:26:19.998Z,1.90
2022-09-10T16:28:54.565Z,1.98
2022-09-10T16:31:25.950Z,2.05
2022-09-10T16:33:54.962Z,2.65
2022-09-10T16:36:23.339Z,2.58
2022-09-10T16:38:54.804Z,2.40
2022-09-10T16:41:22.163Z,2.40
2022-09-10T16:43:48.645Z,2.22
2022-09-10T16:46:14.995Z,2.38
2022-09-10T16:48:42.837Z,3.22
2022-09-10T16:51:16.874Z,2.50
2022-09-10T16:53:47.799Z,2.78
2022-09-10T16:56:16.050Z,2.17
2022-09-10T16:58:45.826Z,2.50
2022-09-10T17:01:12.127Z,2.45
2022-09-10T17:03:43.147Z,2.88
2022-09-10T17:06:18.201Z,2.22
2022-09-10T17:08:45.090Z,2.22
2022-09-10T17:11:14.124Z,2.20
2022-09-10T17:13:40.983Z,1.83
2022-09-10T17:16:16.244Z,2.00
2022-09-10T17:18:44.045Z,2.00
2022-09-10T17:21:10.417Z,2.00
2022-09-10T17:23:37.070Z,2.50
2022-09-10T17:26:07.727Z,2.03
2022-09-10T17:28:35.354Z,2.58
2022-09-10T17:31:01.868Z,2.00
2022-09-10T17:33:28.724Z,1.80
2022-09-10T17:36:00.212Z,1.77
2022-09-10T17:38:30.513Z,1.65
2022-09-10T17:40:58.148Z,1.60
2022-09-10T17:43:27.527Z,1.50
2022-09-10T17:45:53.925Z,1.30
2022-09-10T17:48:20.254Z,1.60
2022-09-10T17:50:48.610Z,1.83
2022-09-10T17:53:16.010Z,1.90
2022-09-10T17:55:42.931Z,1.75
2022-09-10T17:58:11.639Z,2.00
2022-09-10T18:00:43.591Z,1.90
2022-09-10T18:03:12.105Z,1.90
2022-09-10T18:05:39.329Z,1.85
2022-09-10T18:08:06.225Z,1.83
2022-09-10T18:10:32.997Z,2.13
2022-09-10T18:13:00.423Z,2.00
2022-09-10T18:15:27.699Z,2.20
2022-09-10T18:17:54.433Z,2.15
2022-09-10T18:20:22.830Z,2.57
2022-09-10T18:22:49.529Z,2.00
2022-09-10T18:25:15.858Z,2.17
2022-09-10T18:27:43.115Z,1.75
2022-09-10T18:30:10.107Z,2.20
2022-09-10T18:32:36.407Z,2.20
2022-09-10T18:35:02.789Z,2.00
2022-09-10T18:37:29.899Z,2.17
2022-09-10T18:39:56.253Z,2.05
2022-09-10T18:42:22.718Z,2.03
2022-09-10T18:44:49.025Z,2.03
2022-09-10T18:47:34.015Z,1.80
2022-09-10T18:50:01.963Z,1.90
2022-09-10T18:52:29.087Z,2.10
2022-09-10T18:54:55.476Z,2.20
2022-09-10T18:57:21.796Z,2.13
2022-09-10T18:59:48.126Z,2.60
2022-09-10T19:02:15.289Z,2.40
2022-09-10T19:05:07.487Z,2.40
2022-09-10T19:07:28.037Z,2.03
2022-09-10T19:09:54.358Z,2.15
2022-09-10T19:12:20.644Z,2.10
2022-09-10T19:14:46.934Z,2.10
2022-09-10T19:17:14.428Z,1.97
2022-09-10T19:19:40.719Z,1.90
2022-09-10T19:22:07.091Z,1.70
2022-09-10T19:27:20.490Z,1.83
2022-09-10T19:29:47.192Z,1.60
2022-09-10T19:32:14.963Z,1.40
2022-09-10T19:34:41.247Z,1.60
2022-09-10T19:37:07.557Z,1.53
2022-09-10T19:39:33.908Z,1.50
2022-09-10T19:42:00.839Z,1.40
2022-09-10T19:44:27.934Z,1.40
2022-09-10T19:46:55.131Z,1.60
2022-09-10T19:49:22.109Z,1.67
2022-09-10T19:51:48.402Z,1.40
2022-09-10T19:54:14.749Z,1.50
2022-09-10T19:56:42.415Z,1.87
2022-09-10T19:59:09.688Z,1.80
2022-09-10T20:01:38.996Z,1.37
2022-09-10T20:04:08.665Z,1.40
2022-09-10T20:06:35.954Z,1.50
2022-09-10T20:09:04.305Z,1.63
2022-09-10T20:11:32.794Z,1.90
2022-09-10T20:14:01.305Z,1.23
2022-09-10T20:16:28.408Z,1.80
2022-09-10T20:18:54.800Z,1.33
2022-09-10T20:21:27.213Z,1.67
2022-09-10T20:23:57.658Z,1.53
2022-09-10T20:26:27.988Z,1.60
2022-09-10T20:28:57.177Z,1.57
2022-09-10T20:31:26.098Z,1.50
2022-09-10T20:33:56.434Z,1.80
2022-09-10T20:36:23.640Z,1.37
2022-09-10T20:38:51.271Z,1.75
2022-09-10T20:41:17.782Z,1.67
2022-09-10T20:43:44.086Z,1.60
2022-09-10T20:46:15.913Z,1.43
2022-09-10T20:48:48.307Z,1.80
2022-09-10T20:51:17.646Z,1.60
2022-09-10T20:53:43.956Z,1.67
2022-09-10T20:56:12.850Z,1.67
2022-09-10T20:58:39.957Z,1.93
2022-09-10T21:01:18.660Z,1.53
2022-09-10T21:03:45.863Z,1.50
2022-09-10T21:06:13.360Z,1.60
2022-09-10T21:08:41.483Z,1.67
2022-09-10T21:11:12.393Z,2.17
2022-09-10T21:13:43.982Z,1.70
2022-09-10T21:16:12.885Z,1.60
2022-09-10T21:18:43.359Z,1.60
2022-09-10T21:21:15.951Z,1.50
2022-09-10T21:23:46.679Z,1.47
2022-09-10T21:26:14.240Z,1.60
2022-09-10T21:28:41.661Z,1.83
2022-09-10T21:31:09.083Z,1.70
2022-09-10T21:33:36.110Z,1.60
2022-09-10T21:36:16.646Z,1.60
2022-09-10T21:38:47.092Z,1.20
2022-09-10T21:41:15.073Z,1.50
2022-09-10T21:43:46.123Z,1.40
2022-09-10T21:46:13.501Z,1.60
2022-09-10T21:48:40.813Z,1.60
2022-09-10T21:51:09.647Z,1.30
2022-09-10T21:53:36.053Z,1.43
2022-09-10T21:56:03.949Z,1.57
2022-09-10T21:58:33.637Z,1.10
2022-09-10T22:01:00.115Z,1.30
2022-09-10T22:03:27.429Z,1.50
2022-09-10T22:06:04.097Z,1.37
2022-09-10T22:08:30.391Z,1.20
2022-09-10T22:10:57.186Z,1.30
2022-09-10T22:13:23.494Z,1.40
2022-09-10T22:15:50.896Z,1.20
2022-09-10T22:18:17.218Z,1.33
2022-09-10T22:20:43.519Z,1.50
2022-09-10T22:23:09.811Z,1.60
2022-09-10T22:25:36.136Z,1.60
2022-09-10T22:28:02.493Z,1.50
2022-09-10T22:30:28.876Z,1.40
2022-09-10T22:32:58.441Z,1.60
2022-09-10T22:35:26.253Z,1.17
2022-09-10T22:37:58.804Z,1.50
2022-09-10T22:40:25.674Z,1.60
2022-09-10T22:42:52.419Z,1.70
2022-09-10T22:45:20.603Z,1.83
2022-09-10T22:47:47.801Z,1.67
2022-09-10T22:50:15.162Z,1.40
2022-09-10T22:52:43.486Z,1.70
2022-09-10T22:55:10.202Z,1.87
2022-09-10T22:57:37.990Z,1.43
2022-09-10T23:00:04.598Z,1.70
2022-09-10T23:02:31.098Z,1.70
2022-09-10T23:04:57.443Z,2.00
2022-09-10T23:07:23.777Z,1.93
2022-09-10T23:09:50.123Z,1.57
2022-09-10T23:12:16.854Z,2.17
2022-09-10T23:14:43.399Z,1.87
2022-09-10T23:17:09.698Z,2.47
2022-09-10T23:19:35.990Z,1.77
2022-09-10T23:22:03.249Z,2.00
2022-09-10T23:24:29.525Z,1.70
2022-09-10T23:26:55.927Z,2.20
2022-09-10T23:29:24.028Z,2.20
2022-09-10T23:31:53.204Z,1.97
2022-09-10T23:34:20.278Z,3.65
2022-09-10T23:36:47.947Z,2.20
2022-09-10T23:39:22.727Z,2.27
2022-09-10T23:41:50.680Z,2.00
2022-09-10T23:44:17.392Z,1.97
2022-09-10T23:46:44.525Z,2.40
2022-09-10T23:49:11.338Z,2.23
2022-09-10T23:51:37.647Z,2.10
2022-09-10T23:54:03.934Z,2.87
2022-09-10T23:56:30.707Z,2.40
2022-09-10T23:58:59.378Z,2.50
